Time;durP1;ratioP1;P1;durP2;ratioP2;P2;SDS_P1;SDS_P2;PMS_P1;PMS_P2;Temp;Humidity;BMP_temperature;BMP_pressure;BME280_temperature;BME280_humidity;BME280_pressure;Samples;Min_cycle;Max_cycle;Signal;HPM_P1;HPM_P2
2022/03/05 00:01:24;;;;;;;13.70;9.73;;;;;;;6.61;73.85;101441.66;5013545;28;20112;-85
2022/03/05 00:03:50;;;;;;;13.57;9.55;;;;;;;6.06;73.63;101334.34;5013170;28;20075;-85
2022/03/05 00:06:15;;;;;;;13.63;9.23;;;;;;;6.19;74.58;101389.81;5031257;28;20107;-85
2022/03/05 00:08:42;;;;;;;14.85;9.80;;;;;;;6.69;74.19;101474.31;5013190;28;20037;-85
2022/03/05 00:11:08;;;;;;;13.38;9.05;;;;;;;6.31;73.99;101399.47;5045548;28;20511;-85
2022/03/05 00:13:35;;;;;;;13.38;9.18;;;;;;;6.60;74.15;101442.41;5051630;28;20073;-85
2022/03/05 00:16:02;;;;;;;13.63;9.45;;;;;;;6.57;74.28;101447.38;5035866;28;20501;-85
2022/03/05 00:18:27;;;;;;;13.15;9.55;;;;;;;6.04;73.96;101351.47;5031500;28;20034;-85
2022/03/05 00:20:53;;;;;;;12.82;8.80;;;;;;;6.19;74.59;101382.91;5013391;28;20552;-84
2022/03/05 00:23:19;;;;;;;13.75;9.68;;;;;;;6.68;74.09;101462.13;5013473;28;20021;-85
2022/03/05 00:25:45;;;;;;;12.40;8.98;;;;;;;6.66;74.34;101444.63;5013607;28;20030;-86
2022/03/05 00:28:11;;;;;;;14.55;9.48;;;;;;;6.56;73.87;101422.22;5026561;28;20041;-85
2022/03/05 00:30:37;;;;;;;12.68;8.98;;;;;;;6.69;74.22;101453.56;4977710;28;20038;-86
2022/03/05 00:33:03;;;;;;;14.65;9.15;;;;;;;6.59;73.80;101413.78;5026556;28;20447;-85
2022/03/05 00:35:29;;;;;;;13.70;9.32;;;;;;;6.03;73.86;101325.41;5029595;28;20030;-85
2022/03/05 00:37:56;;;;;;;13.45;9.15;;;;;;;6.45;74.13;101410.06;5033087;28;20030;-85
2022/03/05 00:40:22;;;;;;;12.52;9.38;;;;;;;6.78;73.88;101443.00;5016882;28;20557;-85
2022/03/05 00:42:47;;;;;;;13.65;9.30;;;;;;;6.60;73.79;101424.25;5034505;28;20029;-83
2022/03/05 00:45:13;;;;;;;15.00;9.50;;;;;;;6.39;73.94;101394.94;5033365;28;20049;-83
2022/03/05 00:47:39;;;;;;;12.40;8.85;;;;;;;6.69;73.37;101431.91;5032530;28;20033;-83
2022/03/05 00:50:06;;;;;;;13.43;9.15;;;;;;;6.57;73.94;101425.72;5033214;28;20112;-84
2022/03/05 00:52:33;;;;;;;14.05;9.38;;;;;;;6.65;74.46;101451.50;5032863;28;20133;-83
2022/03/05 00:54:58;;;;;;;;;;;;;;;6.68;74.23;101454.31;5017133;28;20577;-82
2022/03/05 00:57:24;;;;;;;12.70;8.45;;;;;;;6.60;74.20;101438.94;5017046;28;20008;-83
2022/03/05 00:59:49;;;;;;;13.02;9.25;;;;;;;6.92;73.06;101446.69;5014379;28;20088;-83
2022/03/05 01:02:15;;;;;;;13.38;9.23;;;;;;;6.56;73.59;101418.69;5016344;28;20079;-84
2022/03/05 01:04:41;;;;;;;12.65;9.13;;;;;;;6.79;73.45;101452.59;5016511;28;20553;-84
2022/03/05 01:07:06;;;;;;;13.82;9.57;;;;;;;6.34;73.69;101380.66;5033826;28;20033;-84
2022/03/05 01:09:32;;;;;;;14.23;9.73;;;;;;;6.56;74.12;101424.81;5034092;28;20441;-84
2022/03/05 01:11:58;;;;;;;13.18;8.98;;;;;;;6.71;73.87;101451.09;4999979;28;20029;-84
2022/03/05 01:14:24;;;;;;;13.15;8.93;;;;;;;6.29;74.17;101379.41;5032621;28;20402;-84
2022/03/05 01:16:49;;;;;;;15.10;9.50;;;;;;;6.63;74.20;101450.47;5015375;28;20040;-83
2022/03/05 01:19:15;;;;;;;13.07;9.30;;;;;;;6.44;74.12;101408.25;5034133;28;20452;-84
2022/03/05 01:21:41;;;;;;;14.30;9.27;;;;;;;6.85;73.59;101442.69;5032439;28;20033;-84
2022/03/05 01:24:07;;;;;;;16.45;9.40;;;;;;;6.65;73.77;101437.63;5033442;28;20087;-84
2022/03/05 01:26:32;;;;;;;13.73;8.98;;;;;;;6.41;74.08;101397.63;5033782;28;20045;-84
2022/03/05 01:28:58;;;;;;;13.93;9.60;;;;;;;6.64;73.81;101441.88;5015948;28;20033;-85
2022/03/05 01:31:24;;;;;;;14.90;9.40;;;;;;;6.59;73.54;101416.38;5016143;28;20379;-84
2022/03/05 01:33:49;;;;;;;15.15;9.85;;;;;;;6.43;73.50;101389.16;5015463;28;20033;-85
2022/03/05 01:36:15;;;;;;;12.77;9.35;;;;;;;6.85;73.46;101447.00;5015901;28;20105;-84
2022/03/05 01:38:41;;;;;;;12.18;8.98;;;;;;;6.64;73.63;101433.19;5015733;28;20091;-84
2022/03/05 01:41:06;;;;;;;13.02;8.77;;;;;;;6.71;73.31;101432.94;5033477;28;20031;-84
2022/03/05 01:43:32;;;;;;;14.07;9.43;;;;;;;6.84;73.44;101445.19;5028653;28;20034;-84
2022/03/05 01:45:58;;;;;;;13.38;9.05;;;;;;;6.80;73.54;101449.22;4996370;28;20034;-84
2022/03/05 01:48:23;;;;;;;12.68;9.25;;;;;;;6.72;73.76;101437.31;5013509;28;20113;-84
2022/03/05 01:50:49;;;;;;;11.88;8.88;;;;;;;6.61;73.23;101394.94;5013204;28;20427;-84
2022/03/05 01:53:15;;;;;;;12.97;9.33;;;;;;;6.71;73.87;101449.41;5013171;28;20487;-84
2022/03/05 01:55:42;;;;;;;12.88;8.95;;;;;;;6.76;73.10;101418.63;5031997;28;20601;-84
2022/03/05 01:58:08;;;;;;;13.65;9.18;;;;;;;6.67;73.22;101433.47;5031640;28;20038;-84
2022/03/05 02:00:34;;;;;;;14.32;9.30;;;;;;;6.85;73.22;101442.69;5031247;28;20037;-85
2022/03/05 02:02:59;;;;;;;13.63;9.45;;;;;;;6.58;73.25;101398.97;5033030;28;20071;-85
2022/03/05 02:05:25;;;;;;;15.25;9.70;;;;;;;6.87;72.92;101440.22;5015379;28;20025;-84
2022/03/05 02:07:51;;;;;;;13.80;9.60;;;;;;;6.68;73.35;101432.66;5015134;28;20188;-84
2022/03/05 02:10:17;;;;;;;13.63;9.30;;;;;;;6.68;73.62;101443.06;5014898;28;20021;-84
2022/03/05 02:12:42;;;;;;;13.25;9.18;;;;;;;6.78;73.50;101444.72;5015100;28;20029;-84
2022/03/05 02:15:09;;;;;;;13.68;9.15;;;;;;;6.70;73.74;101434.59;5015215;28;20025;-84
2022/03/05 02:17:35;;;;;;;13.68;9.20;;;;;;;6.37;73.41;101386.13;5014892;28;20033;-84
2022/03/05 02:20:02;;;;;;;13.40;9.27;;;;;;;6.78;73.66;101442.09;5021826;28;20467;-84
2022/03/05 02:22:28;;;;;;;13.70;9.18;;;;;;;6.43;73.14;101383.09;5012885;28;20025;-84
2022/03/05 02:25:03;;;;;;;13.75;9.43;;;;;;;6.63;73.76;101452.16;5032430;28;20030;-84
2022/03/05 02:27:29;;;;;;;12.48;8.77;;;;;;;6.59;74.12;101443.22;5015672;28;20029;-84
2022/03/05 02:29:55;;;;;;;13.55;9.10;;;;;;;6.60;74.02;101431.13;5015196;28;20029;-83
2022/03/05 02:32:21;;;;;;;13.90;9.38;;;;;;;6.75;73.47;101452.22;5032508;28;20025;-84
2022/03/05 02:34:47;;;;;;;12.98;9.07;;;;;;;6.52;73.31;101413.28;4998320;28;20049;-83
2022/03/05 02:37:15;;;;;;;13.88;9.70;;;;;;;6.72;73.71;101456.38;5031843;28;20029;-84
2022/03/05 02:39:44;;;;;;;13.40;9.32;;;;;;;6.61;73.42;101444.25;5032052;28;20155;-84
2022/03/05 02:42:10;;;;;;;13.10;9.23;;;;;;;6.72;73.65;101460.69;5031086;28;20034;-84
2022/03/05 02:44:36;;;;;;;13.13;9.30;;;;;;;6.55;73.64;101429.88;5033434;28;20025;-83
2022/03/05 02:47:02;;;;;;;12.98;9.32;;;;;;;6.50;73.91;101432.09;5036040;28;20033;-84
2022/03/05 02:49:27;;;;;;;12.85;9.00;;;;;;;6.77;73.51;101466.25;5017151;28;20033;-84
2022/03/05 02:51:53;;;;;;;12.17;8.47;;;;;;;6.68;73.52;101451.72;5031737;28;20046;-83
2022/03/05 02:54:19;;;;;;;13.75;9.60;;;;;;;6.55;73.37;101435.06;5032084;28;20828;-84
2022/03/05 02:56:44;;;;;;;13.27;9.38;;;;;;;6.71;73.44;101464.06;5030818;28;20129;-84
2022/03/05 02:59:10;;;;;;;12.95;9.13;;;;;;;6.72;73.54;101463.28;5032208;28;20033;-84
2022/03/05 03:01:36;;;;;;;13.35;8.88;;;;;;;6.59;73.16;101440.63;5014766;28;20033;-84
2022/03/05 03:04:02;;;;;;;14.63;9.77;;;;;;;6.58;73.61;101449.19;5014510;28;20035;-84
2022/03/05 03:06:28;;;;;;;14.70;9.75;;;;;;;6.72;73.58;101459.00;5031983;28;20380;-84
2022/03/05 03:08:54;;;;;;;12.98;9.50;;;;;;;6.06;73.08;101349.00;5030800;28;20479;-84
2022/03/05 03:11:19;;;;;;;13.35;9.20;;;;;;;6.57;73.42;101434.41;5031017;28;20466;-84
2022/03/05 03:13:45;;;;;;;13.93;9.57;;;;;;;6.44;73.19;101410.84;5031937;28;20056;-82
2022/03/05 03:16:10;;;;;;;12.55;9.10;;;;;;;6.75;73.21;101468.69;5031474;28;20048;-84
2022/03/05 03:18:36;;;;;;;14.45;9.02;;;;;;;6.58;73.43;101450.88;5031720;28;20664;-85
2022/03/05 03:21:02;;;;;;;12.85;8.82;;;;;;;6.71;73.34;101471.88;5030814;28;20406;-82
2022/03/05 03:23:28;;;;;;;14.25;9.68;;;;;;;6.72;73.47;101474.56;5031508;28;20048;-84
2022/03/05 03:25:54;;;;;;;13.65;9.23;;;;;;;6.77;73.06;101487.91;5031881;28;20033;-84
2022/03/05 03:28:20;;;;;;;12.75;9.05;;;;;;;6.04;73.56;101368.72;5019105;28;20441;-84
2022/03/05 03:30:46;;;;;;;14.38;9.68;;;;;;;6.74;73.50;101482.47;5035006;28;20037;-84
2022/03/05 03:33:11;;;;;;;14.57;9.88;;;;;;;6.43;72.89;101414.22;5032374;28;20060;-85
2022/03/05 03:35:37;;;;;;;13.73;9.23;;;;;;;6.75;72.92;101492.06;5014693;28;20037;-85
2022/03/05 03:38:03;;;;;;;14.13;9.35;;;;;;;6.38;73.18;101431.09;5013448;28;20025;-82
2022/03/05 03:40:29;;;;;;;12.98;9.10;;;;;;;6.27;73.03;101406.91;5030453;28;20037;-84
2022/03/05 03:42:54;;;;;;;12.68;9.27;;;;;;;6.46;73.11;101445.63;5013960;28;20236;-84
2022/03/05 03:45:20;;;;;;;13.43;8.93;;;;;;;6.67;73.03;101480.19;5013938;28;20037;-84
2022/03/05 03:47:48;;;;;;;13.48;9.27;;;;;;;6.78;73.03;101494.91;5031045;28;20025;-85
2022/03/05 03:50:15;;;;;;;14.75;10.18;;;;;;;6.81;72.83;101500.34;4997401;28;20042;-85
2022/03/05 03:52:41;;;;;;;13.65;9.50;;;;;;;6.42;73.21;101446.16;5013297;28;20050;-84
2022/03/05 03:55:09;;;;;;;14.02;9.25;;;;;;;6.52;73.36;101480.75;5031433;28;20415;-84
2022/03/05 03:57:34;;;;;;;12.73;9.18;;;;;;;6.73;73.14;101510.13;5013303;28;20033;-85
2022/03/05 04:00:00;;;;;;;12.82;9.02;;;;;;;6.72;72.94;101503.09;5030173;28;20120;-85
2022/03/05 04:04:51;;;;;;;13.50;9.20;;;;;;;6.72;73.23;101512.59;5031233;28;20403;-84
2022/03/05 04:10:03;;;;;;;14.00;9.32;;;;;;;6.66;73.10;101507.78;5035464;28;20052;-84
2022/03/05 04:12:29;;;;;;;13.82;9.55;;;;;;;6.48;73.06;101477.78;5017379;28;20029;-83
2022/03/05 04:14:54;;;;;;;13.55;8.82;;;;;;;6.57;73.18;101495.78;5035079;28;20025;-83
2022/03/05 04:17:22;;;;;;;12.02;8.68;;;;;;;6.72;73.17;101518.69;5016608;28;20182;-85
2022/03/05 04:19:48;;;;;;;13.75;9.15;;;;;;;6.73;72.71;101506.59;5017200;28;20021;-83
2022/03/05 04:22:13;;;;;;;13.63;9.35;;;;;;;6.77;72.98;101525.94;5017240;28;20033;-84
2022/03/05 04:24:39;;;;;;;13.63;9.70;;;;;;;6.68;72.66;101515.72;5034834;28;20040;-83
2022/03/05 04:27:05;;;;;;;12.32;8.60;;;;;;;6.70;72.74;101517.66;5016737;28;20044;-82
2022/03/05 04:29:31;;;;;;;13.13;9.00;;;;;;;6.78;72.58;101530.38;5034593;28;20108;-84
2022/03/05 04:31:56;;;;;;;13.20;9.30;;;;;;;6.79;72.46;101527.88;5034775;28;20034;-83
2022/03/05 04:34:22;;;;;;;12.25;8.93;;;;;;;6.66;73.18;101541.53;5034891;28;20029;-83
2022/03/05 04:36:48;;;;;;;13.00;8.60;;;;;;;6.55;72.46;101503.44;5034291;28;20475;-84
2022/03/05 04:39:13;;;;;;;12.75;9.05;;;;;;;6.80;72.46;101542.69;5034607;28;20030;-84
2022/03/05 04:41:39;;;;;;;13.40;9.45;;;;;;;6.59;73.21;101527.97;5034591;28;20428;-83
2022/03/05 04:44:05;;;;;;;13.05;8.98;;;;;;;6.78;72.68;101541.66;5034301;28;20029;-83
2022/03/05 04:46:31;;;;;;;15.13;9.65;;;;;;;6.74;72.80;101542.19;5026997;28;20029;-84
2022/03/05 04:48:57;;;;;;;14.23;9.27;;;;;;;6.50;72.75;101497.88;5015920;28;20025;-85
2022/03/05 04:51:22;;;;;;;14.82;9.55;;;;;;;6.61;72.84;101521.19;5034010;28;20049;-84
2022/03/05 04:53:48;;;;;;;13.07;9.00;;;;;;;6.67;72.62;101534.69;5034119;28;20056;-84
2022/03/05 04:56:13;;;;;;;11.68;8.57;;;;;;;6.82;72.20;101548.00;5034088;28;20347;-84
2022/03/05 04:58:39;;;;;;;13.75;9.07;;;;;;;6.71;72.71;101552.31;5033549;28;20441;-84
2022/03/05 05:01:06;;;;;;;13.88;9.38;;;;;;;6.30;72.69;101484.94;5034028;28;20033;-85
2022/03/05 05:03:32;;;;;;;13.18;9.23;;;;;;;6.75;72.66;101556.94;5015840;28;20033;-86
2022/03/05 05:05:59;;;;;;;13.75;9.23;;;;;;;6.70;72.67;101554.00;4999869;28;20033;-84
2022/03/05 05:08:24;;;;;;;;;;;;;;;6.73;72.58;101550.72;5024416;28;20037;-85
2022/03/05 05:10:50;;;;;;;13.25;9.07;;;;;;;6.56;72.96;101525.09;5009795;28;19917;-85
2022/03/05 05:13:15;;;;;;;13.23;8.95;;;;;;;6.47;72.93;101520.06;5015106;28;20025;-86
2022/03/05 05:15:41;;;;;;;12.65;9.00;;;;;;;6.47;73.05;101518.34;5016110;28;20037;-86
2022/03/05 05:18:07;;;;;;;14.07;9.65;;;;;;;6.48;72.58;101520.19;5033392;28;20056;-85
2022/03/05 05:20:32;;;;;;;13.13;9.00;;;;;;;6.62;72.89;101547.25;5032834;28;20056;-85
2022/03/05 05:22:58;;;;;;;13.30;9.15;;;;;;;6.51;72.92;101514.34;5033624;28;20025;-83
2022/03/05 05:25:24;;;;;;;11.70;8.30;;;;;;;6.40;72.89;101509.97;5033572;28;20041;-85
2022/03/05 05:27:49;;;;;;;13.45;9.13;;;;;;;6.24;72.87;101492.22;5005406;28;20289;-85
2022/03/05 05:30:15;;;;;;;13.57;9.15;;;;;;;5.95;72.89;101433.69;5025749;28;20112;-86
2022/03/05 05:32:41;;;;;;;12.68;9.05;;;;;;;6.56;73.00;101554.56;5015905;28;20061;-87
2022/03/05 05:35:07;;;;;;;12.80;9.02;;;;;;;6.59;73.31;101559.09;5033687;28;20041;-86
2022/03/05 05:37:33;;;;;;;13.65;9.15;;;;;;;6.68;72.84;101555.56;5015515;28;20034;-85
2022/03/05 05:40:01;;;;;;;12.45;8.88;;;;;;;6.43;73.01;101524.06;5033781;28;20033;-87
2022/03/05 05:42:26;;;;;;;15.80;10.23;;;;;;;6.48;73.22;101550.44;5033582;28;20033;-87
2022/03/05 05:44:53;;;;;;;13.85;9.05;;;;;;;6.60;73.17;101571.28;5012607;28;20033;-81
2022/03/05 05:47:20;;;;;;;13.23;9.00;;;;;;;6.44;73.13;101558.72;5024656;28;20049;-87
2022/03/05 05:49:45;;;;;;;14.13;9.48;;;;;;;6.25;73.61;101536.44;5016249;28;20445;-82
2022/03/05 05:52:11;;;;;;;13.27;9.25;;;;;;;6.52;72.95;101549.91;5033184;28;20041;-83
2022/03/05 05:54:37;;;;;;;14.90;9.85;;;;;;;6.11;73.15;101505.84;5033131;28;20065;-87
2022/03/05 05:57:02;;;;;;;13.90;9.50;;;;;;;6.30;73.53;101536.81;5015142;28;20036;-86
2022/03/05 05:59:28;;;;;;;13.40;9.30;;;;;;;6.32;73.05;101545.63;5032995;28;20037;-85
2022/03/05 06:01:54;;;;;;;14.10;9.43;;;;;;;6.61;73.10;101586.97;5015252;28;20052;-84
2022/03/05 06:04:19;;;;;;;12.38;8.98;;;;;;;6.12;73.52;101523.25;5032741;28;20033;-85
2022/03/05 06:06:45;;;;;;;13.90;9.63;;;;;;;6.54;73.66;101592.47;5033636;28;20035;-84
2022/03/05 06:09:11;;;;;;;12.95;8.95;;;;;;;6.26;73.76;101568.47;5020041;28;20034;-87
2022/03/05 06:11:37;;;;;;;13.70;9.18;;;;;;;6.26;73.71;101563.28;5027686;28;20473;-86
2022/03/05 06:14:02;;;;;;;12.35;9.10;;;;;;;6.20;73.51;101550.72;4992409;28;20038;-86
2022/03/05 06:16:28;;;;;;;12.77;9.25;;;;;;;6.52;73.44;101607.00;5027131;28;20555;-84
2022/03/05 06:18:54;;;;;;;11.90;8.68;;;;;;;6.30;73.43;101570.53;5042498;28;20506;-85
2022/03/05 06:21:20;;;;;;;13.32;9.30;;;;;;;6.13;73.55;101537.09;5021017;28;20119;-80
2022/03/05 06:23:45;;;;;;;14.43;9.82;;;;;;;6.44;73.64;101611.53;5052301;28;20120;-81
2022/03/05 06:26:13;;;;;;;15.00;9.73;;;;;;;6.49;73.66;101615.41;5030544;28;20471;-83
2022/03/05 06:28:39;;;;;;;;;;;;;;;6.44;74.02;101614.13;5022234;28;20615;-82
2022/03/05 06:31:04;;;;;;;14.48;9.55;;;;;;;6.34;73.94;101601.16;5029835;28;19917;-83
2022/03/05 06:33:30;;;;;;;13.40;9.32;;;;;;;6.44;73.75;101611.53;5043321;28;20505;-82
2022/03/05 06:35:56;;;;;;;12.77;8.75;;;;;;;6.44;73.86;101614.13;5028301;28;20152;-82
2022/03/05 06:38:24;;;;;;;13.93;9.38;;;;;;;6.44;74.05;101611.53;5030195;28;20040;-82
2022/03/05 06:40:50;;;;;;;14.32;9.50;;;;;;;6.42;74.09;101612.19;5020122;28;20037;-80
2022/03/05 06:43:23;;;;;;;13.45;9.60;;;;;;;5.88;74.44;101546.28;5012537;28;20018;-82
2022/03/05 06:45:52;;;;;;;13.13;8.88;;;;;;;5.82;74.72;101537.06;5044586;28;20044;-85
2022/03/05 06:48:17;;;;;;;14.82;9.93;;;;;;;6.15;74.14;101582.22;5052290;28;20036;-83
2022/03/05 06:50:43;;;;;;;13.98;9.50;;;;;;;6.32;74.24;101607.88;5019900;28;20034;-81
2022/03/05 06:53:09;;;;;;;14.32;9.93;;;;;;;6.22;74.36;101597.50;5035589;28;20033;-81
2022/03/05 06:55:40;;;;;;;13.45;9.27;;;;;;;6.31;73.62;101588.84;5042090;28;20033;-83
2022/03/05 06:58:06;;;;;;;13.43;9.27;;;;;;;6.16;74.36;101591.81;5038193;28;20025;-83
2022/03/05 07:00:32;;;;;;;14.68;9.70;;;;;;;6.31;74.22;101600.91;5032471;28;20048;-81
2022/03/05 07:02:57;;;;;;;14.60;9.95;;;;;;;6.27;74.73;101617.88;5014200;28;20021;-82
2022/03/05 07:05:23;;;;;;;14.05;9.57;;;;;;;6.32;74.49;101624.34;5031538;28;20037;-82
2022/03/05 07:07:49;;;;;;;13.23;9.32;;;;;;;6.15;74.40;101585.72;5032674;28;20101;-81
2022/03/05 07:10:14;;;;;;;13.63;9.30;;;;;;;6.25;74.06;101603.88;5038632;28;20597;-83
2022/03/05 07:12:40;;;;;;;13.18;9.07;;;;;;;6.28;74.37;101601.53;5023796;28;20141;-83
2022/03/05 07:15:07;;;;;;;13.23;9.18;;;;;;;6.32;74.61;101631.22;5051661;28;20033;-83
2022/03/05 07:17:33;;;;;;;12.25;8.75;;;;;;;6.23;74.20;101591.56;5051392;28;20118;-84
2022/03/05 07:19:58;;;;;;;13.93;9.70;;;;;;;6.18;74.02;101583.41;5040413;28;20120;-84
2022/03/05 07:22:24;;;;;;;14.77;9.82;;;;;;;5.73;74.34;101526.81;5027834;28;20412;-84
2022/03/05 07:24:50;;;;;;;12.88;9.32;;;;;;;6.06;74.59;101575.47;5018644;28;20032;-84
2022/03/05 07:27:16;;;;;;;;;;;;;;;6.19;75.12;101616.31;5034216;28;20511;-83
2022/03/05 07:29:43;;;;;;;13.05;9.32;;;;;;;6.00;74.85;101576.66;5016444;28;19967;-83
2022/03/05 07:32:10;;;;;;;14.35;9.68;;;;;;;6.30;74.66;101619.81;5016592;28;20045;-84
2022/03/05 07:34:36;;;;;;;14.30;9.13;;;;;;;6.27;74.56;101629.94;5019482;28;20025;-84
2022/03/05 07:37:02;;;;;;;14.55;9.70;;;;;;;6.11;74.59;101604.38;5033002;28;20422;-82
2022/03/05 07:39:28;;;;;;;14.15;9.57;;;;;;;6.21;74.67;101622.53;5051271;28;20028;-81
2022/03/05 07:41:54;;;;;;;14.43;10.15;;;;;;;6.16;74.69;101607.38;5031478;28;20087;-81
2022/03/05 07:44:20;;;;;;;13.80;9.68;;;;;;;5.99;74.74;101585.19;5019199;28;20104;-83
2022/03/05 07:46:46;;;;;;;13.18;9.15;;;;;;;6.25;74.34;101606.47;5019631;28;20033;-84
2022/03/05 07:49:11;;;;;;;13.23;8.98;;;;;;;5.82;74.88;101560.38;5019473;28;20060;-86
2022/03/05 07:51:37;;;;;;;13.95;9.68;;;;;;;5.96;73.78;101538.28;5016706;28;20053;-85
2022/03/05 07:54:03;;;;;;;14.07;9.47;;;;;;;6.27;74.25;101610.09;5017050;28;20056;-86
2022/03/05 07:56:29;;;;;;;14.20;9.85;;;;;;;6.26;74.50;101626.44;5015684;28;20276;-87
2022/03/05 07:58:55;;;;;;;13.02;9.35;;;;;;;6.39;73.98;101632.66;5017114;28;20044;-87
2022/03/05 08:01:20;;;;;;;15.57;10.48;;;;;;;6.47;73.68;101642.91;5021275;28;20097;-85
2022/03/05 08:03:46;;;;;;;14.32;10.15;;;;;;;5.97;74.60;101574.72;5019822;28;20446;-85
2022/03/05 08:06:11;;;;;;;15.07;10.15;;;;;;;6.34;74.08;101628.78;5036774;28;20036;-86
2022/03/05 08:08:37;;;;;;;14.68;10.05;;;;;;;6.04;74.48;101578.72;5030305;28;20090;-85
2022/03/05 08:11:03;;;;;;;17.33;9.60;;;;;;;6.31;74.88;101660.56;5025220;28;20455;-86
2022/03/05 08:13:30;;;;;;;14.02;10.18;;;;;;;6.24;74.76;101632.28;5016791;28;20480;-87
2022/03/05 08:15:56;;;;;;;14.35;9.85;;;;;;;5.82;74.09;101543.16;5016386;28;20033;-86
2022/03/05 08:18:21;;;;;;;13.02;9.40;;;;;;;6.03;74.85;101610.59;5007789;28;20037;-86
2022/03/05 08:20:48;;;;;;;14.43;10.10;;;;;;;6.58;73.71;101661.06;5020095;28;20523;-86
2022/03/05 08:23:13;;;;;;;15.40;10.23;;;;;;;6.38;74.25;101656.81;5022288;28;20087;-88
2022/03/05 08:25:39;;;;;;;15.65;10.43;;;;;;;6.29;74.14;101628.41;5016784;28;20034;-88
2022/03/05 08:28:05;;;;;;;14.52;10.32;;;;;;;6.23;74.78;101633.97;5016049;28;20112;-87
2022/03/05 08:30:31;;;;;;;15.18;9.73;;;;;;;6.20;74.62;101617.22;5016135;28;20041;-87
2022/03/05 08:32:59;;;;;;;16.17;10.65;;;;;;;6.43;74.17;101638.22;5016208;28;20033;-87
2022/03/05 08:35:25;;;;;;;14.60;9.63;;;;;;;6.32;74.38;101626.94;5029116;28;20033;-85
2022/03/05 08:37:50;;;;;;;12.60;9.25;;;;;;;6.46;74.04;101655.78;5038107;28;20029;-87
2022/03/05 08:40:17;;;;;;;14.30;9.95;;;;;;;6.34;74.20;101641.75;5032888;28;20415;-84
2022/03/05 08:42:43;;;;;;;14.00;9.63;;;;;;;6.43;74.64;101656.38;5029400;28;20044;-87
2022/03/05 08:45:10;;;;;;;15.35;10.30;;;;;;;6.07;74.41;101581.56;5032942;28;20116;-85
2022/03/05 08:47:36;;;;;;;15.18;10.35;;;;;;;6.35;74.59;101641.88;5030277;28;20037;-86
2022/03/05 08:50:03;;;;;;;17.08;11.05;;;;;;;6.53;74.05;101656.41;5030815;28;20141;-87
2022/03/05 08:52:35;;;;;;;17.00;10.98;;;;;;;6.42;74.22;101644.22;5035864;28;20057;-85
2022/03/05 08:55:05;;;;;;;15.23;11.13;;;;;;;6.35;74.41;101622.78;5029047;28;20026;-86
2022/03/05 08:57:31;;;;;;;16.23;11.00;;;;;;;6.36;73.83;101622.94;5022821;28;20521;-88
2022/03/05 09:00:10;;;;;;;15.77;10.75;;;;;;;6.45;74.60;101659.13;5013650;28;20033;-88
2022/03/05 09:02:36;;;;;;;17.30;11.30;;;;;;;6.37;73.78;101635.16;5009213;28;20130;-86
2022/03/05 09:05:02;;;;;;;17.63;11.23;;;;;;;5.92;74.49;101571.66;5007630;28;20112;-85
2022/03/05 09:07:27;;;;;;;16.27;10.85;;;;;;;5.98;74.62;101592.06;5027197;28;20091;-87
2022/03/05 09:09:53;;;;;;;18.35;11.80;;;;;;;5.64;74.84;101547.66;5019741;28;20042;-84
2022/03/05 09:12:19;;;;;;;18.00;12.15;;;;;;;6.16;75.08;101641.06;5045693;28;20060;-85
2022/03/05 09:14:46;;;;;;;16.85;11.73;;;;;;;6.24;75.28;101643.53;5024948;28;20021;-85
2022/03/05 09:17:12;;;;;;;17.05;11.32;;;;;;;6.33;75.28;101664.19;5012086;28;20522;-84
2022/03/05 09:19:38;;;;;;;17.05;11.63;;;;;;;6.10;75.45;101625.91;5029149;28;20030;-84
2022/03/05 09:22:07;;;;;;;17.83;12.52;;;;;;;6.14;75.75;101642.63;5049182;28;20137;-85
2022/03/05 09:24:33;;;;;;;19.23;11.80;;;;;;;5.99;74.83;101588.72;5008470;28;20029;-83
2022/03/05 09:26:58;;;;;;;19.17;12.65;;;;;;;6.22;75.65;101665.88;5013954;28;20491;-83
2022/03/05 09:29:25;;;;;;;18.75;11.57;;;;;;;6.23;74.65;101633.06;5016599;28;20080;-83
2022/03/05 09:31:50;;;;;;;;;;;;;;;6.39;75.05;101675.09;5034162;28;20026;-84
2022/03/05 09:34:16;;;;;;;17.40;11.27;;;;;;;6.15;75.38;101634.09;5011883;28;20310;-84
2022/03/05 09:36:41;;;;;;;17.60;11.07;;;;;;;6.00;75.65;101632.00;5012530;28;20030;-83
2022/03/05 09:39:08;;;;;;;16.65;10.55;;;;;;;6.17;75.43;101650.69;5014726;28;20184;-84
2022/03/05 09:41:33;;;;;;;16.58;11.13;;;;;;;6.01;75.25;101628.63;5040365;28;20026;-83
2022/03/05 09:43:59;;;;;;;17.02;11.48;;;;;;;6.27;75.10;101659.38;5020601;28;20041;-83
2022/03/05 09:46:26;;;;;;;16.07;10.80;;;;;;;6.05;75.23;101630.72;4995298;28;20045;-83
2022/03/05 09:48:53;;;;;;;15.75;10.63;;;;;;;6.22;75.29;101639.00;5011869;28;20279;-84
2022/03/05 09:51:21;;;;;;;16.52;11.23;;;;;;;6.12;75.21;101626.97;4994777;28;20141;-83
2022/03/05 09:53:47;;;;;;;15.82;10.57;;;;;;;6.18;75.31;101642.13;5011900;28;20061;-83
2022/03/05 09:56:13;;;;;;;16.73;11.15;;;;;;;6.18;75.05;101636.94;5011163;28;20120;-84
2022/03/05 09:58:39;;;;;;;17.52;11.05;;;;;;;6.34;75.24;101654.72;5013998;28;20030;-85
2022/03/05 10:01:05;;;;;;;15.25;10.23;;;;;;;6.28;75.08;101648.22;5032722;28;20025;-84
2022/03/05 10:03:42;;;;;;;15.85;10.00;;;;;;;6.21;75.06;101634.63;5026817;28;20526;-85
2022/03/05 10:06:34;;;;;;;17.85;12.05;;;;;;;6.13;75.45;101646.00;5015350;28;20037;-84
2022/03/05 10:09:00;;;;;;;16.55;11.10;;;;;;;6.20;75.60;101657.06;4994267;28;20038;-83
2022/03/05 10:11:38;;;;;;;16.85;11.13;;;;;;;6.32;75.36;101667.56;5036554;28;20503;-82
2022/03/05 10:14:17;;;;;;;16.60;11.10;;;;;;;6.14;75.43;101629.66;5025436;28;20030;-84
2022/03/05 10:16:43;;;;;;;19.50;11.90;;;;;;;6.35;75.71;101667.84;5011396;28;20507;-83
2022/03/05 10:19:16;;;;;;;;;;;;;;;6.29;75.58;101662.13;5012658;28;20057;-83
2022/03/05 10:21:58;;;;;;;17.08;11.10;;;;;;;6.35;75.54;101667.84;5050654;28;19913;-83
2022/03/05 10:24:36;;;;;;;15.73;10.90;;;;;;;6.26;75.56;101667.94;5024592;28;20029;-83
2022/03/05 10:27:02;;;;;;;18.70;10.80;;;;;;;6.40;75.08;101663.94;5021000;28;20029;-83
2022/03/05 10:29:34;;;;;;;16.13;10.82;;;;;;;6.26;75.64;101662.75;5028265;28;20026;-82
2022/03/05 10:32:02;;;;;;;16.70;11.00;;;;;;;6.34;74.71;101626.19;5012072;28;20415;-84
2022/03/05 10:34:52;;;;;;;17.25;11.32;;;;;;;6.44;75.21;101667.69;5038888;28;20036;-82
2022/03/05 10:37:19;;;;;;;17.73;11.35;;;;;;;6.41;74.82;101660.53;5032202;28;20029;-85
2022/03/05 10:39:46;;;;;;;16.20;11.05;;;;;;;6.15;74.71;101614.25;5032250;28;20028;-85
2022/03/05 10:42:19;;;;;;;16.30;10.77;;;;;;;6.36;75.67;101673.91;5029009;28;20175;-84
2022/03/05 10:45:09;;;;;;;13.93;10.05;;;;;;;6.37;75.42;101675.72;5020391;28;20029;-84
2022/03/05 10:47:40;;;;;;;15.73;10.90;;;;;;;6.45;74.76;101664.31;5021685;28;20815;-85
2022/03/05 10:50:10;;;;;;;16.75;11.35;;;;;;;6.44;75.23;101670.28;5006679;28;20061;-84
2022/03/05 10:52:46;;;;;;;15.82;10.60;;;;;;;6.35;75.05;101661.72;4999090;28;20560;-84
2022/03/05 10:55:18;;;;;;;15.73;10.55;;;;;;;6.39;75.42;101662.13;5002230;28;20026;-85
2022/03/05 10:58:13;;;;;;;17.48;11.43;;;;;;;6.55;74.64;101666.91;4988504;28;20111;-84
2022/03/05 11:00:40;;;;;;;16.98;11.23;;;;;;;6.70;74.18;101683.75;5008663;28;20088;-84
2022/03/05 11:03:06;;;;;;;18.75;11.57;;;;;;;6.47;74.12;101635.13;4990170;28;20040;-82
2022/03/05 11:05:32;;;;;;;16.08;11.05;;;;;;;6.77;73.97;101669.59;5003344;28;20110;-83
2022/03/05 11:07:58;;;;;;;16.48;11.32;;;;;;;6.65;74.16;101672.09;4992430;28;20041;-81
2022/03/05 11:10:27;;;;;;;17.48;11.60;;;;;;;6.55;74.86;101664.31;4989716;28;20030;-85
2022/03/05 11:12:59;;;;;;;15.65;10.82;;;;;;;6.14;75.33;101598.53;4990189;28;21620;-84
2022/03/05 11:15:26;;;;;;;17.88;11.18;;;;;;;6.70;74.23;101662.09;4975306;28;20455;-84
2022/03/05 11:17:52;;;;;;;17.17;11.70;;;;;;;6.69;74.75;101660.31;4989594;28;20412;-84
2022/03/05 11:20:18;;;;;;;17.77;11.50;;;;;;;6.77;74.18;101658.31;5000024;28;20034;-84
2022/03/05 11:22:49;;;;;;;17.95;12.00;;;;;;;6.77;74.21;101660.91;5010566;28;20061;-83
2022/03/05 11:25:16;;;;;;;17.17;11.30;;;;;;;6.55;74.93;101656.53;4994404;28;20026;-84
2022/03/05 11:28:04;;;;;;;18.05;12.05;;;;;;;6.44;75.17;101642.66;5010368;28;20052;-84